Time;durP1;ratioP1;P1;durP2;ratioP2;P2;SDS_P1;SDS_P2;PMS_P1;PMS_P2;Temp;Humidity;BMP_temperature;BMP_pressure;BME280_temperature;BME280_humidity;BME280_pressure;Samples;Min_cycle;Max_cycle;Signal;HPM_P1;HPM_P2
2022/12/14 00:00:41;;;;;;;;;;;;;;;9.42;68.22;101599.09;5112239;28;20309;-85
2022/12/14 00:03:07;;;;;;;;;;;;;;;9.46;68.14;101590.69;5114272;28;19918;-85
2022/12/14 00:05:32;;;;;;;;;;;;;;;9.43;68.45;101596.59;5091142;28;19916;-84
2022/12/14 00:07:58;;;;;;;;;;;;;;;9.44;68.21;101601.03;5114099;28;19912;-85
2022/12/14 00:10:23;;;;;;;;;;;;;;;9.42;68.25;101607.84;5130460;28;19962;-84
2022/12/14 00:12:48;;;;;;;;;;;;;;;9.39;68.38;101618.03;5114059;28;19912;-85
2022/12/14 00:15:14;;;;;;;;;;;;;;;9.37;68.69;101606.59;5123960;28;20003;-85
2022/12/14 00:17:39;;;;;;;;;;;;;;;9.35;68.69;101606.47;5132488;28;20396;-85
2022/12/14 00:20:05;;;;;;;;;;;;;;;9.36;68.40;101618.72;5121839;28;19912;-85
2022/12/14 00:22:30;;;;;;;;;;;;;;;9.34;68.66;101612.50;5111222;28;19919;-85
2022/12/14 00:24:56;;;;;;;;;;;;;;;9.36;68.49;101610.91;5105716;28;20035;-85
2022/12/14 00:27:21;;;;;;;;;;;;;;;9.35;68.21;101613.38;5132439;28;20291;-87
2022/12/14 00:29:47;;;;;;;;;;;;;;;9.37;68.58;101603.97;5113356;28;20407;-83
2022/12/14 00:32:12;;;;;;;;;;;;;;;9.33;68.24;101617.59;5113745;28;20367;-86
2022/12/14 00:34:38;;;;;;;;;;;;;;;9.33;68.46;101617.59;5132402;28;20525;-85
2022/12/14 00:37:03;;;;;;;;;;;;;;;9.32;68.66;101614.06;5119654;28;19916;-85
2022/12/14 00:39:29;;;;;;;;;;;;;;;9.31;68.41;101612.28;5142261;28;19912;-85
2022/12/14 00:41:54;;;;;;;;;;;;;;;9.30;68.39;101612.16;5095932;28;19917;-85
2022/12/14 00:44:20;;;;;;;;;;;;;;;9.27;68.52;101625.88;5113535;28;19915;-85
2022/12/14 00:46:46;;;;;;;;;;;;;;;9.27;68.80;101636.31;5083300;28;20324;-85
2022/12/14 00:49:11;;;;;;;;;;;;;;;9.28;68.38;101635.50;5120777;28;19911;-85
2022/12/14 00:51:37;;;;;;;;;;;;;;;9.26;68.42;101634.47;5093313;28;20372;-85
2022/12/14 00:54:03;;;;;;;;;;;;;;;9.27;68.47;101624.94;5093807;28;19916;-84
2022/12/14 00:56:28;;;;;;;;;;;;;;;9.26;68.55;101631.88;5112336;27;20308;-85
2022/12/14 00:58:54;;;;;;;;;;;;;;;9.23;68.66;101634.28;5135509;27;19916;-84
2022/12/14 01:01:19;;;;;;;;;;;;;;;9.23;68.54;101630.72;5122455;27;19919;-85
2022/12/14 01:03:45;;;;;;;;;;;;;;;9.24;68.16;101629.97;5097186;28;20373;-85
2022/12/14 01:06:14;;;;;;;;;;;;;;;9.27;68.46;101637.97;5126991;27;19918;-84
2022/12/14 01:08:40;;;;;;;;;;;;;;;9.26;68.14;101644.91;5099044;28;19919;-84
2022/12/14 01:11:06;;;;;;;;;;;;;;;9.23;68.49;101643.75;5115179;28;19912;-85
2022/12/14 01:13:31;;;;;;;;;;;;;;;9.23;68.57;101641.16;5102293;27;20289;-84
2022/12/14 01:16:00;;;;;;;;;;;;;;;9.21;68.20;101630.66;5135466;27;19911;-85
2022/12/14 01:18:26;;;;;;;;;;;;;;;9.20;68.63;101626.22;5110523;27;19965;-85
2022/12/14 01:20:51;;;;;;;;;;;;;;;9.19;68.53;101629.63;5135294;27;19923;-84
2022/12/14 01:23:17;;;;;;;;;;;;;;;9.20;68.46;101621.00;5117394;27;20449;-84
2022/12/14 01:25:42;;;;;;;;;;;;;;;9.20;68.59;101631.41;5128108;27;20002;-85
2022/12/14 01:28:07;;;;;;;;;;;;;;;9.20;68.52;101622.72;5126808;27;19915;-84
2022/12/14 01:30:33;;;;;;;;;;;;;;;9.17;68.63;101626.00;5116832;27;20288;-84
2022/12/14 01:32:59;;;;;;;;;;;;;;;9.15;68.56;101625.88;5135296;27;20376;-84
2022/12/14 01:35:25;;;;;;;;;;;;;;;9.16;68.57;101622.50;5134021;27;19919;-84
2022/12/14 01:37:50;;;;;;;;;;;;;;;9.15;68.53;101619.78;5114470;28;19916;-85
2022/12/14 01:40:15;;;;;;;;;;;;;;;9.12;68.51;101630.88;5127560;27;19911;-85
2022/12/14 01:42:41;;;;;;;;;;;;;;;9.12;68.47;101622.13;5130022;27;19927;-85
2022/12/14 01:45:14;;;;;;;;;;;;;;;9.14;68.33;101634.50;5125315;27;20308;-85
2022/12/14 01:47:41;;;;;;;;;;;;;;;9.12;68.38;101632.56;5112951;27;19912;-85
2022/12/14 01:50:15;;;;;;;;;;;;;;;9.09;68.48;101632.34;5096418;28;19919;-85
2022/12/14 01:52:45;;;;;;;;;;;;;;;9.11;68.41;101631.66;5130991;27;19984;-85
2022/12/14 01:55:10;;;;;;;;;;;;;;;9.10;68.46;101626.31;5116735;27;20067;-85
2022/12/14 01:57:37;;;;;;;;;;;;;;;9.11;68.63;101625.53;5133196;27;20440;-85
2022/12/14 02:00:04;;;;;;;;;;;;;;;9.10;68.30;101615.91;5103281;27;19915;-85
2022/12/14 02:02:29;;;;;;;;;;;;;;;9.09;68.46;101608.91;5116514;27;19919;-86
2022/12/14 02:04:56;;;;;;;;;;;;;;;9.10;68.27;101606.41;5101776;27;19919;-86
2022/12/14 02:07:22;;;;;;;;;;;;;;;9.07;68.25;101602.66;5089211;27;19911;-85
2022/12/14 02:09:47;;;;;;;;;;;;;;;9.09;68.54;101611.50;5093781;28;20388;-85
2022/12/14 02:12:15;;;;;;;;;;;;;;;9.08;68.27;101602.78;5098720;27;19954;-83
2022/12/14 02:14:40;;;;;;;;;;;;;;;9.08;68.09;101610.59;5096690;27;19912;-83
2022/12/14 02:17:06;;;;;;;;;;;;;;;9.04;68.06;101612.84;5109079;28;20595;-85
2022/12/14 02:19:31;;;;;;;;;;;;;;;9.00;68.23;101608.22;5108717;27;20353;-86
2022/12/14 02:22:03;;;;;;;;;;;;;;;9.04;68.22;101616.38;5115974;27;19959;-84
2022/12/14 02:24:47;;;;;;;;;;;;;;;9.03;68.59;101626.69;5109051;27;19911;-84
2022/12/14 02:27:45;;;;;;;;;;;;;;;9.06;68.18;101629.50;5109457;28;19915;-84
2022/12/14 02:30:10;;;;;;;;;;;;;;;9.03;68.61;101632.78;5065891;27;19912;-84
2022/12/14 02:32:41;;;;;;;;;;;;;;;9.00;68.45;101631.69;5115817;27;19917;-85
2022/12/14 02:35:16;;;;;;;;;;;;;;;9.02;68.34;101638.81;5115861;27;19919;-83
2022/12/14 02:37:48;;;;;;;;;;;;;;;9.01;68.66;101649.09;5115643;27;19922;-83
2022/12/14 02:40:20;;;;;;;;;;;;;;;8.96;68.73;101646.16;5114417;27;20350;-85
2022/12/14 02:42:48;;;;;;;;;;;;;;;8.99;68.46;101646.38;5112651;27;20567;-85
2022/12/14 02:45:34;;;;;;;;;;;;;;;8.97;68.51;101640.16;5132832;27;20439;-85
2022/12/14 02:48:07;;;;;;;;;;;;;;;8.98;68.65;101641.06;5095412;28;19919;-85
2022/12/14 02:50:38;;;;;;;;;;;;;;;8.99;68.19;101640.28;5127538;27;20408;-83
2022/12/14 02:53:15;;;;;;;;;;;;;;;8.95;68.50;101631.31;5097679;28;19915;-84
2022/12/14 02:55:48;;;;;;;;;;;;;;;8.98;68.58;101635.88;5100908;27;19922;-83
2022/12/14 02:58:26;;;;;;;;;;;;;;;8.96;68.47;101625.31;5124564;27;19926;-84
2022/12/14 03:00:52;;;;;;;;;;;;;;;8.95;68.45;101623.50;5132233;27;19918;-84
2022/12/14 03:03:18;;;;;;;;;;;;;;;8.93;68.63;101619.88;5115370;27;19912;-83
2022/12/14 03:05:53;;;;;;;;;;;;;;;8.89;68.40;101621.38;5124718;27;19976;-83
2022/12/14 03:08:18;;;;;;;;;;;;;;;8.90;68.52;101623.16;5139537;27;19916;-85
2022/12/14 03:10:44;;;;;;;;;;;;;;;8.83;68.21;101612.19;5114865;27;19912;-85
2022/12/14 03:13:15;;;;;;;;;;;;;;;8.90;68.54;101630.97;5127554;27;20389;-85
2022/12/14 03:15:41;;;;;;;;;;;;;;;8.90;68.64;101620.56;5109704;27;19950;-85
2022/12/14 03:18:06;;;;;;;;;;;;;;;8.85;68.84;101614.09;5104455;28;20312;-85
2022/12/14 03:20:32;;;;;;;;;;;;;;;8.85;68.51;101615.81;5107983;27;19918;-84
2022/12/14 03:23:00;;;;;;;;;;;;;;;8.86;68.60;101613.31;5131983;27;19911;-85
2022/12/14 03:25:27;;;;;;;;;;;;;;;8.86;68.64;101617.63;5113635;27;20339;-85
2022/12/14 03:28:01;;;;;;;;;;;;;;;8.84;68.70;101627.91;5103707;28;19912;-85
2022/12/14 03:30:27;;;;;;;;;;;;;;;8.83;68.60;101620.00;5098264;27;20236;-85
2022/12/14 03:32:52;;;;;;;;;;;;;;;8.83;68.59;101633.94;5109426;27;20385;-85
2022/12/14 03:35:24;;;;;;;;;;;;;;;8.85;68.70;101626.25;5100413;27;20304;-86
2022/12/14 03:37:51;;;;;;;;;;;;;;;8.86;68.46;101626.31;5118466;27;20376;-85
2022/12/14 03:40:17;;;;;;;;;;;;;;;8.85;68.71;101631.44;5094220;28;20513;-85
2022/12/14 03:43:01;;;;;;;;;;;;;;;8.86;68.63;101628.03;5094546;28;19916;-85
2022/12/14 03:45:30;;;;;;;;;;;;;;;8.83;68.80;101617.41;5113705;27;19918;-85
2022/12/14 03:47:55;;;;;;;;;;;;;;;8.79;68.96;101620.56;5113890;28;19915;-85
2022/12/14 03:50:26;;;;;;;;;;;;;;;8.81;68.72;101622.50;5114673;28;20010;-85
2022/12/14 03:52:54;;;;;;;;;;;;;;;8.81;68.65;101622.50;5107801;28;19984;-84
2022/12/14 03:55:31;;;;;;;;;;;;;;;8.82;68.75;101626.00;5101241;27;19955;-85
2022/12/14 03:57:59;;;;;;;;;;;;;;;8.80;68.76;101620.66;5100517;28;19972;-85
2022/12/14 04:00:25;;;;;;;;;;;;;;;8.79;68.95;101610.16;5129624;27;19923;-84
2022/12/14 04:03:01;;;;;;;;;;;;;;;8.76;68.94;101611.72;5108015;28;19912;-84
2022/12/14 04:05:35;;;;;;;;;;;;;;;8.82;68.55;101615.56;5106473;28;19912;-85
2022/12/14 04:08:07;;;;;;;;;;;;;;;8.80;69.00;101627.56;5127358;28;20389;-86
2022/12/14 04:19:44;;;;;;;;;;;;;;;8.74;68.76;101614.97;5116767;28;20019;-85
2022/12/14 04:22:11;;;;;;;;;;;;;;;8.75;68.79;101603.78;5125106;28;20324;-85
2022/12/14 04:27:25;;;;;;;;;;;;;;;8.72;68.96;101590.53;5117312;28;19934;-86
2022/12/14 04:29:57;;;;;;;;;;;;;;;8.71;69.19;101586.13;5126374;27;20377;-84
2022/12/14 04:32:37;;;;;;;;;;;;;;;8.68;68.76;101591.13;5110468;28;19922;-85
2022/12/14 04:35:08;;;;;;;;;;;;;;;8.72;69.00;101588.84;5112099;27;20377;-85
2022/12/14 04:37:34;;;;;;;;;;;;;;;8.65;69.16;101591.78;5097774;28;19920;-86
2022/12/14 04:40:05;;;;;;;;;;;;;;;8.66;69.17;101582.28;5097752;28;19994;-84
2022/12/14 04:42:32;;;;;;;;;;;;;;;8.65;69.05;101580.47;5117215;27;19951;-86
2022/12/14 04:44:59;;;;;;;;;;;;;;;8.67;69.03;101584.97;5117449;27;19916;-86
2022/12/14 04:47:27;;;;;;;;;;;;;;;8.65;68.86;101583.06;5083004;28;19916;-85
2022/12/14 04:49:55;;;;;;;;;;;;;;;8.68;68.81;101586.81;5107982;27;19947;-84
2022/12/14 04:52:23;;;;;;;;;;;;;;;8.68;68.90;101584.22;5117848;27;19912;-84
2022/12/14 04:54:48;;;;;;;;;;;;;;;8.63;68.87;101580.34;5118012;27;19919;-85
2022/12/14 04:57:22;;;;;;;;;;;;;;;8.62;69.11;101585.47;5121566;27;19916;-85
2022/12/14 04:59:48;;;;;;;;;;;;;;;8.65;68.78;101581.34;5117044;27;20010;-84
2022/12/14 05:02:16;;;;;;;;;;;;;;;8.65;68.70;101577.84;5117795;27;19961;-85
2022/12/14 05:05:00;;;;;;;;;;;;;;;8.64;68.66;101573.47;5109655;27;20365;-85
2022/12/14 05:07:38;;;;;;;;;;;;;;;8.62;68.83;101578.53;5134618;27;19911;-84
2022/12/14 05:10:06;;;;;;;;;;;;;;;8.63;68.96;101582.94;5117663;27;20570;-84
2022/12/14 05:12:50;;;;;;;;;;;;;;;8.61;68.91;101575.81;5117031;27;19912;-84
2022/12/14 05:15:23;;;;;;;;;;;;;;;8.58;68.92;101576.50;5124371;27;20013;-84
2022/12/14 05:17:49;;;;;;;;;;;;;;;8.57;69.00;101582.47;5106806;27;19916;-84
2022/12/14 05:20:16;;;;;;;;;;;;;;;8.56;69.05;101584.19;5116766;27;19922;-84
2022/12/14 05:22:41;;;;;;;;;;;;;;;8.58;69.24;101584.31;5092145;28;20038;-85
2022/12/14 05:25:07;;;;;;;;;;;;;;;8.54;69.00;101585.75;5135224;27;20372;-85
2022/12/14 05:27:32;;;;;;;;;;;;;;;8.56;69.03;101591.09;5135900;27;20003;-85
2022/12/14 05:29:57;;;;;;;;;;;;;;;8.61;69.02;101604.44;5134714;27;19915;-84
2022/12/14 05:32:23;;;;;;;;;;;;;;;8.54;69.34;101609.19;5089379;27;20355;-85
2022/12/14 05:34:48;;;;;;;;;;;;;;;8.53;69.17;101604.78;5116247;27;20412;-85
2022/12/14 05:37:14;;;;;;;;;;;;;;;8.56;69.07;101605.00;5130915;27;20610;-84
2022/12/14 05:39:39;;;;;;;;;;;;;;;8.52;69.24;101600.34;5135601;27;19964;-84
2022/12/14 05:42:05;;;;;;;;;;;;;;;8.52;69.13;101602.97;5143593;27;20476;-84
2022/12/14 05:44:30;;;;;;;;;;;;;;;8.52;69.24;101608.16;5139088;27;19943;-84
2022/12/14 05:46:55;;;;;;;;;;;;;;;8.52;69.09;101602.97;5115625;27;19972;-84
2022/12/14 05:49:24;;;;;;;;;;;;;;;8.51;68.92;101608.97;5134765;27;20304;-84
2022/12/14 05:51:49;;;;;;;;;;;;;;;8.50;69.08;101601.94;5117057;27;19915;-83
2022/12/14 05:54:15;;;;;;;;;;;;;;;8.50;69.09;101614.97;5116153;27;19918;-84
2022/12/14 05:56:40;;;;;;;;;;;;;;;8.49;69.25;101618.38;5104860;28;19912;-84
2022/12/14 05:59:05;;;;;;;;;;;;;;;8.48;69.33;101616.53;5131839;27;19912;-84
2022/12/14 06:01:31;;;;;;;;;;;;;;;8.50;69.28;101609.75;5115589;27;20384;-84
2022/12/14 06:03:56;;;;;;;;;;;;;;;8.50;69.24;101601.03;5133512;27;19943;-84
2022/12/14 06:06:22;;;;;;;;;;;;;;;8.51;69.01;101605.47;5131258;27;19922;-84
2022/12/14 06:08:47;;;;;;;;;;;;;;;8.45;69.38;101607.63;5129207;27;20417;-84
2022/12/14 06:11:14;;;;;;;;;;;;;;;8.52;69.16;101599.47;5110541;28;19927;-85
2022/12/14 06:13:40;;;;;;;;;;;;;;;8.47;69.01;101606.94;5133316;27;19923;-85
2022/12/14 06:16:06;;;;;;;;;;;;;;;8.41;69.53;101619.47;5113391;27;20349;-84
2022/12/14 06:18:32;;;;;;;;;;;;;;;8.49;69.18;101612.25;5102660;28;20320;-85
2022/12/14 06:20:57;;;;;;;;;;;;;;;8.43;69.32;101619.59;5127568;27;19920;-84
2022/12/14 06:23:23;;;;;;;;;;;;;;;8.44;69.18;101624.91;5125955;27;19919;-84
2022/12/14 06:25:57;;;;;;;;;;;;;;;8.44;69.20;101640.50;5130131;27;19912;-83
2022/12/14 06:28:22;;;;;;;;;;;;;;;8.45;69.32;101641.44;5115548;27;19915;-83
2022/12/14 06:30:48;;;;;;;;;;;;;;;8.40;69.32;101646.25;5107861;28;19923;-83
2022/12/14 06:33:14;;;;;;;;;;;;;;;8.39;69.33;101631.44;5103511;28;20316;-84
2022/12/14 06:35:46;;;;;;;;;;;;;;;8.35;69.35;101622.47;5121183;27;20304;-84
2022/12/14 06:38:12;;;;;;;;;;;;;;;8.41;69.35;101619.47;5107601;28;20004;-83
2022/12/14 06:40:38;;;;;;;;;;;;;;;8.37;69.33;101620.00;5101305;27;20376;-83
2022/12/14 06:43:03;;;;;;;;;;;;;;;8.40;69.38;101627.13;5123715;27;20147;-83
2022/12/14 06:45:29;;;;;;;;;;;;;;;8.39;69.53;101639.25;5108040;27;20376;-84
2022/12/14 06:47:54;;;;;;;;;;;;;;;8.41;69.42;101631.59;5106135;27;19964;-84
2022/12/14 06:50:20;;;;;;;;;;;;;;;8.42;69.39;101638.59;5110919;27;19923;-84
2022/12/14 06:52:48;;;;;;;;;;;;;;;8.39;69.31;101647.03;5124059;27;19965;-85
2022/12/14 06:55:16;;;;;;;;;;;;;;;8.42;69.40;101647.31;5081077;27;19919;-85
2022/12/14 06:57:42;;;;;;;;;;;;;;;8.38;69.29;101646.91;5124029;27;19991;-84
2022/12/14 07:00:11;;;;;;;;;;;;;;;8.38;69.59;101646.91;5127449;27;19962;-84
2022/12/14 07:02:37;;;;;;;;;;;;;;;8.37;69.37;101656.44;5102634;27;20309;-83
2022/12/14 07:05:02;;;;;;;;;;;;;;;8.38;69.50;101660.84;5113540;27;19941;-84
2022/12/14 07:07:28;;;;;;;;;;;;;;;8.35;69.46;101652.81;5100840;28;19922;-84
2022/12/14 07:09:53;;;;;;;;;;;;;;;8.36;69.50;101652.94;5117798;27;19970;-84
2022/12/14 07:12:19;;;;;;;;;;;;;;;8.34;69.60;101653.59;5091337;27;20389;-84
2022/12/14 07:14:44;;;;;;;;;;;;;;;8.33;69.50;101657.88;5130282;27;19919;-84
2022/12/14 07:17:10;;;;;;;;;;;;;;;8.35;69.50;101661.50;5123754;27;19959;-84
2022/12/14 07:19:35;;;;;;;;;;;;;;;8.38;69.46;101659.94;5129469;27;19915;-83
2022/12/14 07:22:03;;;;;;;;;;;;;;;8.38;69.40;101659.94;5129544;27;20422;-87
2022/12/14 07:24:28;;;;;;;;;;;;;;;8.33;69.75;101663.09;5087849;27;19974;-89
2022/12/14 07:26:55;;;;;;;;;;;;;;;8.34;69.59;101657.09;5091131;28;19959;-86
2022/12/14 07:29:20;;;;;;;;;;;;;;;8.33;69.39;101660.47;5117172;27;19959;-85
2022/12/14 07:31:46;;;;;;;;;;;;;;;8.29;69.57;101654.94;5108044;27;20449;-84
2022/12/14 07:34:11;;;;;;;;;;;;;;;8.36;69.52;101665.03;5122854;27;19915;-85
2022/12/14 07:36:37;;;;;;;;;;;;;;;8.33;69.39;101656.97;5107320;27;20293;-85
2022/12/14 07:39:02;;;;;;;;;;;;;;;8.36;69.35;101662.44;5097544;28;19924;-85
2022/12/14 07:41:29;;;;;;;;;;;;;;;8.31;69.66;101666.38;5098834;28;19916;-87
2022/12/14 07:43:55;;;;;;;;;;;;;;;8.26;69.78;101652.09;5090684;27;19923;-87
2022/12/14 07:46:22;;;;;;;;;;;;;;;8.30;69.68;101643.75;5099137;28;19916;-87
2022/12/14 07:48:48;;;;;;;;;;;;;;;8.28;69.77;101647.94;5113942;28;19912;-86
2022/12/14 07:51:14;;;;;;;;;;;;;;;8.25;69.88;101645.06;5094641;28;19926;-86
2022/12/14 07:53:40;;;;;;;;;;;;;;;8.26;69.83;101654.72;5076495;28;20381;-90
2022/12/14 07:56:07;;;;;;;;;;;;;;;8.26;69.63;101654.72;5108624;28;19924;-88
2022/12/14 07:58:33;;;;;;;;;;;;;;;8.29;69.55;101655.81;5095225;28;19927;-88
2022/12/14 08:01:12;;;;;;;;;;;;;;;8.33;69.67;101654.38;5089838;28;20006;-90
2022/12/14 08:03:41;;;;;;;;;;;;;;;8.29;69.53;101657.53;5106066;27;19916;-89
2022/12/14 08:06:08;;;;;;;;;;;;;;;8.24;70.04;101669.28;5091520;28;19971;-87
2022/12/14 08:08:37;;;;;;;;;;;;;;;8.28;69.80;101660.94;5111105;28;19920;-88
2022/12/14 08:11:02;;;;;;;;;;;;;;;8.29;70.00;101663.63;5094016;28;19915;-88
2022/12/14 08:13:28;;;;;;;;;;;;;;;8.29;69.76;101661.03;5111131;28;20574;-88
2022/12/14 08:15:54;;;;;;;;;;;;;;;8.28;69.48;101653.13;5084479;28;19920;-87
2022/12/14 08:18:19;;;;;;;;;;;;;;;8.26;69.96;101655.59;5083826;28;19926;-88
2022/12/14 08:20:49;;;;;;;;;;;;;;;8.31;69.68;101656.84;5104463;28;20384;-84
2022/12/14 08:23:14;;;;;;;;;;;;;;;8.28;70.05;101659.22;5103257;28;19926;-84
2022/12/14 08:25:39;;;;;;;;;;;;;;;8.25;70.00;101658.09;5121707;28;19919;-85
2022/12/14 08:28:05;;;;;;;;;;;;;;;8.26;69.97;101654.72;5122400;28;19947;-85
2022/12/14 08:30:30;;;;;;;;;;;;;;;8.24;70.03;101649.38;5115633;28;20373;-84
2022/12/14 08:32:56;;;;;;;;;;;;;;;8.28;69.96;101658.34;5127489;28;19912;-84
2022/12/14 08:35:21;;;;;;;;;;;;;;;8.25;70.02;101658.97;5111866;28;20403;-85
2022/12/14 08:37:46;;;;;;;;;;;;;;;8.25;70.26;101642.47;5125649;28;20365;-84
2022/12/14 08:40:12;;;;;;;;;;;;;;;8.23;70.11;101639.75;5111129;28;19984;-84
2022/12/14 08:42:37;;;;;;;;;;;;;;;8.25;70.14;101642.47;5112147;28;20303;-84
2022/12/14 08:45:03;;;;;;;;;;;;;;;8.30;70.46;101651.56;5128557;28;19965;-85
2022/12/14 08:47:28;;;;;;;;;;;;;;;8.30;70.07;101644.66;5128789;28;19915;-86
2022/12/14 08:49:54;;;;;;;;;;;;;;;8.29;70.20;101649.72;5128822;28;19942;-85
2022/12/14 08:52:20;;;;;;;;;;;;;;;8.33;70.28;101652.69;5124257;28;19915;-85
2022/12/14 08:54:46;;;;;;;;;;;;;;;8.31;70.25;101651.66;5127302;28;19922;-85
2022/12/14 08:57:11;;;;;;;;;;;;;;;8.33;70.48;101646.56;5107397;28;20300;-85
2022/12/14 08:59:36;;;;;;;;;;;;;;;8.37;70.29;101646.03;5087102;28;20308;-86
2022/12/14 09:02:02;;;;;;;;;;;;;;;8.34;70.55;101638.00;5109927;28;19922;-86
2022/12/14 09:04:28;;;;;;;;;;;;;;;8.37;70.42;101633.00;5111522;28;19922;-87
2022/12/14 09:06:54;;;;;;;;;;;;;;;8.38;70.61;101619.19;5096339;28;20446;-87
2022/12/14 09:09:19;;;;;;;;;;;;;;;8.35;70.74;101625.06;5122600;28;19947;-85
2022/12/14 09:11:45;;;;;;;;;;;;;;;8.40;70.51;101619.31;5130482;28;20769;-85
2022/12/14 09:14:10;;;;;;;;;;;;;;;8.41;70.69;101615.97;5091056;28;20372;-86
2022/12/14 09:16:36;;;;;;;;;;;;;;;8.42;70.52;101616.06;5095035;27;19916;-85
2022/12/14 09:19:01;;;;;;;;;;;;;;;8.41;70.71;101615.97;5127963;27;19927;-86
2022/12/14 09:21:27;;;;;;;;;;;;;;;8.43;70.92;101617.00;5089697;27;19978;-86
2022/12/14 09:23:53;;;;;;;;;;;;;;;8.43;70.77;101611.78;5129865;27;19984;-86
2022/12/14 09:26:19;;;;;;;;;;;;;;;8.43;70.86;101611.78;5096113;27;20372;-86
2022/12/14 09:28:46;;;;;;;;;;;;;;;8.42;71.11;101607.38;5109135;27;20002;-86
2022/12/14 09:31:13;;;;;;;;;;;;;;;8.45;71.27;101603.31;5097599;28;20428;-86
2022/12/14 09:33:38;;;;;;;;;;;;;;;8.46;71.53;101604.19;5110871;27;19911;-85
2022/12/14 09:36:07;;;;;;;;;;;;;;;8.49;71.73;101615.75;5105476;27;19919;-85
2022/12/14 09:38:34;;;;;;;;;;;;;;;8.48;71.78;101607.81;5100131;27;19920;-85
2022/12/14 09:41:06;;;;;;;;;;;;;;;8.50;72.01;101596.72;5117653;27;19919;-85
2022/12/14 09:43:39;;;;;;;;;;;;;;;8.49;72.22;101605.34;5109909;28;19912;-85
2022/12/14 09:46:12;;;;;;;;;;;;;;;8.52;72.64;101602.97;5104491;28;19919;-84
2022/12/14 09:48:37;;;;;;;;;;;;;;;8.53;72.71;101611.72;5099039;28;19912;-85
2022/12/14 09:51:02;;;;;;;;;;;;;;;8.55;72.96;101624.03;5109575;27;20288;-85
2022/12/14 09:53:28;;;;;;;;;;;;;;;8.57;73.24;101626.75;5081886;28;20499;-85
2022/12/14 09:55:56;;;;;;;;;;;;;;;8.60;72.97;101623.47;5127122;27;19911;-84
2022/12/14 09:58:24;;;;;;;;;;;;;;;8.63;73.14;101637.63;5091768;28;20293;-85
2022/12/14 10:00:52;;;;;;;;;;;;;;;8.66;73.72;101636.97;5110778;27;19961;-85
2022/12/14 10:03:21;;;;;;;;;;;;;;;8.66;73.68;101621.34;5133748;27;20350;-85
2022/12/14 10:06:05;;;;;;;;;;;;;;;8.66;73.88;101619.63;5134264;27;19911;-85
2022/12/14 10:08:35;;;;;;;;;;;;;;;8.70;74.30;101612.94;5098762;28;19939;-84
2022/12/14 10:11:29;;;;;;;;;;;;;;;8.69;74.31;101617.25;5095265;27;19911;-85
2022/12/14 10:14:10;;;;;;;;;;;;;;;8.74;74.27;101609.78;5041807;27;19995;-86
2022/12/14 10:16:50;;;;;;;;;;;;;;;8.75;74.39;101601.19;5116109;27;20312;-85
2022/12/14 10:19:22;;;;;;;;;;;;;;;8.79;74.41;101598.03;5104937;27;19915;-86
2022/12/14 10:21:50;;;;;;;;;;;;;;;8.76;74.79;101603.00;5107606;27;20002;-86
2022/12/14 10:24:25;;;;;;;;;;;;;;;8.79;75.02;101597.13;5081301;27;19912;-85
2022/12/14 10:26:51;;;;;;;;;;;;;;;8.79;74.85;101592.81;5111262;27;19922;-85
2022/12/14 10:29:20;;;;;;;;;;;;;;;8.79;74.86;101598.03;5099446;28;19915;-87
2022/12/14 10:32:06;;;;;;;;;;;;;;;8.82;75.08;101603.44;5127840;27;20331;-86
2022/12/14 10:34:32;;;;;;;;;;;;;;;8.82;75.30;101605.16;5105487;27;19916;-86
2022/12/14 10:37:04;;;;;;;;;;;;;;;8.84;75.20;101593.16;5116094;27;19918;-86
2022/12/14 10:39:33;;;;;;;;;;;;;;;8.92;75.09;101587.72;5107722;28;19916;-86
2022/12/14 10:42:14;;;;;;;;;;;;;;;8.89;75.13;101587.50;5109753;27;19918;-86
2022/12/14 10:44:45;;;;;;;;;;;;;;;8.86;75.53;101582.06;5112226;28;19979;-86
2022/12/14 10:47:11;;;;;;;;;;;;;;;8.86;75.09;101575.94;5111338;27;19911;-86
2022/12/14 10:49:41;;;;;;;;;;;;;;;8.87;75.28;101581.28;5133949;27;19919;-85
2022/12/14 10:52:11;;;;;;;;;;;;;;;8.90;75.02;101575.38;5090820;27;19916;-86
2022/12/14 10:54:44;;;;;;;;;;;;;;;8.90;75.24;101577.97;5115464;27;19980;-84
2022/12/14 10:57:12;;;;;;;;;;;;;;;8.94;75.65;101567.00;5126506;27;19911;-86
2022/12/14 10:59:37;;;;;;;;;;;;;;;8.94;75.91;101574.81;5090609;28;19924;-84
2022/12/14 11:02:04;;;;;;;;;;;;;;;8.91;75.47;101561.53;5124962;27;19919;-84
2022/12/14 11:04:43;;;;;;;;;;;;;;;8.88;75.82;101563.94;5108798;27;19969;-84
2022/12/14 11:07:13;;;;;;;;;;;;;;;8.85;75.70;101562.03;5106998;27;19964;-84
2022/12/14 11:09:39;;;;;;;;;;;;;;;8.89;75.74;101568.34;5125374;27;19912;-83
2022/12/14 11:12:15;;;;;;;;;;;;;;;8.89;75.73;101557.91;5109299;27;19985;-83
2022/12/14 11:14:57;;;;;;;;;;;;;;;8.83;75.92;101568.81;5110444;27;19915;-84
2022/12/14 11:17:42;;;;;;;;;;;;;;;8.85;75.60;101553.31;5110734;27;19922;-84
2022/12/14 11:20:08;;;;;;;;;;;;;;;8.84;75.65;101548.88;5105428;27;20363;-84
2022/12/14 11:22:48;;;;;;;;;;;;;;;8.81;75.68;101544.34;5128940;27;19962;-84
2022/12/14 11:25:26;;;;;;;;;;;;;;;8.83;76.13;101545.38;5119386;27;19955;-84
2022/12/14 11:27:52;;;;;;;;;;;;;;;8.82;75.72;101546.16;5121759;27;19919;-84
2022/12/14 11:30:18;;;;;;;;;;;;;;;8.83;75.68;101545.38;5126483;27;19918;-84
2022/12/14 11:32:45;;;;;;;;;;;;;;;8.83;75.78;101544.47;5093986;28;19911;-85
2022/12/14 11:35:14;;;;;;;;;;;;;;;8.81;75.86;101540.84;5108428;27;19912;-84
2022/12/14 11:37:39;;;;;;;;;;;;;;;8.83;75.46;101529.75;5101053;27;19915;-84
2022/12/14 11:40:05;;;;;;;;;;;;;;;8.79;75.61;101529.41;5114439;27;19911;-84
2022/12/14 11:42:30;;;;;;;;;;;;;;;8.78;75.55;101528.50;5090975;27;20022;-83
2022/12/14 11:45:16;;;;;;;;;;;;;;;8.77;75.74;101527.59;5119489;27;20487;-84
2022/12/14 11:47:41;;;;;;;;;;;;;;;8.79;75.62;101511.19;5132718;27;19922;-84
2022/12/14 11:50:21;;;;;;;;;;;;;;;8.80;74.99;101519.09;5114626;27;19912;-85
2022/12/14 11:52:46;;;;;;;;;;;;;;;8.77;75.30;101517.16;5114118;27;19912;-86
2022/12/14 11:55:12;;;;;;;;;;;;;;;8.76;75.50;101515.38;5104685;27;19912;-86
2022/12/14 11:57:48;;;;;;;;;;;;;;;8.76;75.40;101511.84;5132176;27;20005;-86
2022/12/14 12:00:36;;;;;;;;;;;;;;;8.77;75.36;101511.06;5114254;28;19933;-85
2022/12/14 12:03:05;;;;;;;;;;;;;;;8.77;75.48;101511.06;5114480;27;19911;-85
2022/12/14 12:05:31;;;;;;;;;;;;;;;8.77;75.36;101501.53;5114097;28;20309;-86
2022/12/14 12:07:57;;;;;;;;;;;;;;;8.75;75.31;101505.75;5113671;28;19942;-85
2022/12/14 12:10:24;;;;;;;;;;;;;;;8.75;75.33;101507.44;5113833;28;20456;-85
2022/12/14 12:12:51;;;;;;;;;;;;;;;8.73;75.28;101509.03;5113796;28;19919;-84
2022/12/14 12:15:18;;;;;;;;;;;;;;;8.73;75.25;101517.75;5132525;28;19919;-83
2022/12/14 12:17:44;;;;;;;;;;;;;;;8.70;75.33;101514.00;5113947;28;19922;-84
2022/12/14 12:20:22;;;;;;;;;;;;;;;8.69;75.38;101517.41;5113994;28;20002;-83
2022/12/14 12:22:48;;;;;;;;;;;;;;;8.70;75.25;101525.34;5091205;28;20377;-84
2022/12/14 12:25:14;;;;;;;;;;;;;;;8.69;75.46;101520.00;5073099;28;19981;-84
2022/12/14 12:27:39;;;;;;;;;;;;;;;8.66;75.30;101530.22;5090453;28;20385;-84
2022/12/14 12:30:18;;;;;;;;;;;;;;;8.63;75.52;101533.47;5089976;28;20385;-85
2022/12/14 12:32:47;;;;;;;;;;;;;;;8.66;75.09;101540.63;5081466;28;19935;-84
2022/12/14 12:35:14;;;;;;;;;;;;;;;8.67;75.32;101532.00;5084677;28;20475;-84
2022/12/14 12:37:41;;;;;;;;;;;;;;;8.66;75.02;101525.00;5086746;28;19931;-84
2022/12/14 12:40:10;;;;;;;;;;;;;;;8.64;75.35;101524.88;5071180;28;19991;-85
2022/12/14 12:42:40;;;;;;;;;;;;;;;8.63;75.04;101516.94;5076679;28;19965;-86
2022/12/14 12:45:08;;;;;;;;;;;;;;;8.60;75.17;101514.13;5073309;28;19916;-85
2022/12/14 12:47:39;;;;;;;;;;;;;;;8.62;75.20;101502.16;5076559;28;19973;-86
2022/12/14 12:50:37;;;;;;;;;;;;;;;8.60;75.09;101499.41;5086716;28;20007;-84
2022/12/14 12:53:04;;;;;;;;;;;;;;;8.61;75.09;101500.31;5059556;28;19918;-84
2022/12/14 12:55:30;;;;;;;;;;;;;;;8.68;74.91;101502.59;5093574;28;19919;-84
2022/12/14 12:57:56;;;;;;;;;;;;;;;8.65;74.93;101507.56;5090531;28;19925;-86
2022/12/14 13:00:26;;;;;;;;;;;;;;;8.62;75.20;101500.44;5082398;28;20313;-86
2022/12/14 13:02:57;;;;;;;;;;;;;;;8.63;74.88;101503.94;5108822;28;19943;-84
2022/12/14 13:05:23;;;;;;;;;;;;;;;8.61;75.30;101495.09;5083076;28;20374;-86